Latest Weather Observations for Melbourne

IDV60901

Issued at 1:05 pm EDT Friday 21 November 2014 (issued every 10 minutes, with the page automatically refreshed every 10 minutes)

About weather observations | Map of Melbourne area stations | Latest observations for Melbourne area | Other Formats
Station Details ID: 086071 Name: MELBOURNE REGIONAL OFFICE Lat: -37.81 Lon: 144.97 Height: 31.15 m
Data from the previous 72 hours. | See also: Recent months at Melbourne

* Apparent temperature (App Temp) for Melbourne is calculated using temperature observations collected at Melbourne and wind observations collected at Melbourne (Olympic Park), as wind observations are not currently provided for Melbourne.

Date/Time
EDT
Tmp

°C
App
Tmp
°C
Dew
Point
°C
Rel
Hum
%
Delta-T

°C
Wind Press
QNH
hPa
Press
MSL
hPa
Rain
since
9 am
mm
Dir
 
Spd
km/h
Gust
km/h
Spd
kts
Gust
kts
21/01:00pm 20.3 17.9 8.5 46 6.2 S 11 - 6 - 1011.5 - 0.2
21/12:30pm 20.9 18.3 7.8 42 6.8 S 11 - 6 - 1011.4 - 0.2
21/12:00pm 20.3 17.7 9.2 49 5.9 S 13 - 7 - 1011.6 1011.5 0.2
21/11:30am 18.8 15.4 9.1 53 5.1 S 17 - 9 - 1011.8 - 0.0
21/11:00am 17.9 15.5 10.0 60 4.2 S 13 - 7 - 1011.7 - 0.0
21/10:30am 18.5 16.3 9.4 55 4.8 WSW 11 - 6 - 1011.1 - 0.0
21/10:00am 17.3 15.5 9.5 60 4.1 SSW 9 - 5 - 1011.0 - 0.0
21/09:30am 17.7 15.3 10.0 60 4.1 SSW 13 - 7 - 1011.1 - 0.0
21/09:00am 17.4 15.9 10.7 65 3.6 WSW 9 - 5 - 1011.0 1011.0 0.6
21/08:30am 17.0 15.4 11.7 71 2.9 WSW 11 - 6 - 1010.9 - 0.6
21/08:00am 17.3 15.5 12.0 71 2.9 SW 13 - 7 - 1010.0 - 0.6
21/07:30am 17.3 15.9 12.2 72 2.8 WSW 11 - 6 - 1009.2 - 0.6
21/07:00am 17.5 16.1 12.3 71 2.9 WSW 11 - 6 - 1008.8 - 0.6
21/06:30am 17.2 16.6 12.3 73 2.7 W 7 - 4 - 1008.3 - 0.6
21/06:00am 17.1 16.1 12.2 73 2.7 W 9 - 5 - 1008.2 1008.2 0.6
21/05:30am 16.9 15.9 12.4 75 2.5 W 9 - 5 - 1007.9 - 0.6
21/05:00am 17.0 15.8 12.9 77 2.3 W 11 - 6 - 1007.4 - 0.6
21/04:30am 17.0 16.1 12.7 76 2.4 WSW 9 - 5 - 1006.8 - 0.6
21/04:00am 17.5 16.7 12.9 74 2.6 WSW 9 - 5 - 1006.3 - 0.6
21/03:30am 17.8 16.5 12.6 71 2.9 WSW 11 - 6 - 1005.9 - 0.6
21/03:00am 18.7 17.5 14.0 74 2.7 SW 13 - 7 - 1005.5 1005.5 0.6
21/02:30am 19.7 21.5 15.5 77 2.5 CALM 0 - 0 - 1005.0 - 0.6
21/02:00am 18.5 19.0 15.5 83 1.8 NNW 7 - 4 - 1005.1 - 0.6
21/01:30am 19.6 20.3 15.6 78 2.4 N 6 - 3 - 1005.1 - 0.6
21/01:00am 19.8 19.9 15.4 76 2.6 N 9 - 5 - 1005.3 - 0.6
21/12:30am 19.8 20.0 15.8 78 2.4 NNE 9 - 5 - 1005.3 - 0.6
21/12:00am 20.7 21.1 15.3 71 3.2 NE 7 - 4 - 1005.4 1005.4 0.6
 
Date/Time
EDT
Tmp

°C
App
Tmp
°C
Dew
Point
°C
Rel
Hum
%
Delta-T

°C
Wind Press
QNH
hPa
Press
MSL
hPa
Rain
since
9 am
mm
Dir
 
Spd
km/h
Gust
km/h
Spd
kts
Gust
kts
20/11:30pm 20.9 21.0 15.4 71 3.3 NNE 9 - 5 - 1005.6 - 0.6
20/11:00pm 21.2 20.7 15.0 67 3.7 N 11 - 6 - 1005.7 - 0.6
20/10:30pm 21.3 19.7 14.9 67 3.8 N 17 - 9 - 1005.9 - 0.6
20/10:00pm 21.2 20.0 15.1 68 3.6 N 15 - 8 - 1006.4 - 0.6
20/09:30pm 21.4 20.5 14.8 66 3.9 N 13 - 7 - 1006.2 - 0.6
20/09:00pm 21.6 20.7 14.8 65 4.0 N 13 - 7 - 1006.3 1006.3 0.4
20/08:30pm 22.0 - 15.1 65 4.1 - - - - - 1006.5 - 0.2
20/08:00pm 21.4 21.9 16.6 74 2.9 NE 9 - 5 - 1006.4 - 0.2
20/07:30pm 21.2 22.0 17.3 78 2.4 NNE 9 - 5 - 1006.9 - 0.0
20/07:00pm 21.4 22.3 17.5 78 2.4 NNE 9 - 5 - 1007.0 - 0.0
20/06:30pm 22.5 23.1 16.8 70 3.5 NE 9 - 5 - 1006.8 - 0.0
20/06:00pm 23.5 25.5 16.1 63 4.5 E 0 - 0 - 1006.5 1006.5 0.0
20/05:30pm 23.5 25.5 16.1 63 4.5 CALM 0 - 0 - 1006.4 - 0.0
20/05:00pm 24.0 24.6 15.4 58 5.2 W 6 - 3 - 1006.3 - 0.0
20/04:30pm 24.9 23.6 13.7 49 6.6 W 13 - 7 - 1006.1 - 0.0
20/04:00pm 26.3 24.8 13.2 44 7.7 WSW 13 - 7 - 1006.1 - 0.0
20/03:30pm 27.3 26.0 12.4 39 8.7 SW 11 - 6 - 1005.5 - 0.0
20/03:00pm 27.4 26.7 12.1 38 8.9 S 7 - 4 - 1005.1 1005.1 0.0
20/02:30pm 28.0 26.4 10.3 33 10.0 S 9 - 5 - 1004.7 - 0.0
20/02:00pm 28.1 27.8 8.7 29 10.6 CALM 0 - 0 - 1004.3 - 0.0
20/01:30pm 27.4 24.6 6.9 27 10.9 N 11 - 6 - 1004.7 - 0.0
20/01:00pm 26.8 22.1 5.2 25 11.1 N 19 - 10 - 1005.0 - 0.0
20/12:30pm 26.6 21.0 3.2 22 11.6 N 22 - 12 - 1005.2 - 0.0
20/12:00pm 26.6 20.6 3.2 22 11.6 N 24 - 13 - 1005.6 1005.5 0.0
20/11:30am 26.5 20.8 3.0 22 11.6 N 22 - 12 - 1005.6 - 0.0
20/11:00am 27.2 21.6 1.5 19 12.4 N 20 - 11 - 1005.6 - 0.0
20/10:30am 25.6 19.0 1.9 21 11.4 N 26 - 14 - 1006.2 - 0.0
20/10:00am 25.3 18.3 2.0 22 11.2 N 28 - 15 - 1006.4 - 0.0
20/09:30am 25.3 19.8 1.6 21 11.3 N 20 - 11 - 1006.9 - 0.0
20/09:00am 25.4 17.7 2.2 22 11.2 N 32 - 17 - 1006.6 1006.7 0.0
20/08:30am 24.7 17.9 1.1 21 11.1 N 26 - 14 - 1007.0 - 0.0
20/08:00am 25.0 19.2 0.2 19 11.5 N 20 - 11 - 1006.8 - 0.0
20/07:30am 24.7 20.4 0.7 20 11.2 N 13 - 7 - 1006.8 - 0.0
20/07:00am 23.8 20.0 1.9 23 10.4 NNE 11 - 6 - 1006.9 - 0.0
20/06:30am 22.9 18.0 2.2 25 9.8 N 17 - 9 - 1007.1 - 0.0
20/06:00am 22.3 17.0 3.2 28 9.2 N 20 - 11 - 1007.0 1007.0 0.0
20/05:30am 21.7 18.3 4.0 31 8.6 N 11 - 6 - 1006.9 - 0.0
20/05:00am 22.0 18.1 3.6 30 8.9 N 13 - 7 - 1007.2 - 0.0
20/04:30am 21.7 18.2 3.4 30 8.8 N 11 - 6 - 1007.3 - 0.0
20/04:00am 22.2 19.0 3.3 29 9.1 NNE 9 - 5 - 1007.6 - 0.0
20/03:30am 23.2 20.2 2.1 25 10.0 NE 7 - 4 - 1007.8 - 0.0
20/03:00am 23.0 20.4 3.1 27 9.6 NE 6 - 3 - 1007.8 1007.8 0.0
20/02:30am 22.2 19.1 3.6 29 9.0 N 9 - 5 - 1008.2 - 0.0
20/02:00am 21.6 18.6 4.1 31 8.5 NNE 9 - 5 - 1008.2 - 0.0
20/01:30am 22.0 19.0 3.9 30 8.8 N 9 - 5 - 1008.8 - 0.0
20/01:00am 22.3 18.9 4.1 30 8.9 NNE 11 - 6 - 1009.5 - 0.0
20/12:30am 22.4 19.4 4.2 30 8.9 NNE 9 - 5 - 1010.0 - 0.0
20/12:00am 22.8 19.7 3.7 28 9.3 N 9 - 5 - 1010.6 1010.6 0.0
 
Date/Time
EDT
Tmp

°C
App
Tmp
°C
Dew
Point
°C
Rel
Hum
%
Delta-T

°C
Wind Press
QNH
hPa
Press
MSL
hPa
Rain
since
9 am
mm
Dir
 
Spd
km/h
Gust
km/h
Spd
kts
Gust
kts
19/11:30pm 22.9 19.9 4.2 29 9.2 N 9 - 5 - 1010.7 - 0.0
19/11:00pm 23.4 20.5 4.4 29 9.4 N 9 - 5 - 1011.1 - 0.0
19/10:30pm 23.9 20.2 4.3 28 9.7 N 13 - 7 - 1011.3 - 0.0
19/10:00pm 24.8 21.9 4.7 27 10.1 N 9 - 5 - 1011.4 - 0.0
19/09:30pm 25.7 22.4 4.4 25 10.7 N 11 - 6 - 1011.3 - 0.0
19/09:00pm 26.6 23.5 3.8 23 11.4 N 9 - 5 - 1011.1 1011.1 0.0
19/08:30pm 27.1 24.3 5.1 24 11.3 N 9 - 5 - 1011.3 - 0.0
19/08:00pm 27.8 25.0 3.4 21 12.2 N 7 - 4 - 1011.1 - 0.0
19/07:30pm 28.2 24.5 2.5 19 12.7 NNW 11 - 6 - 1011.3 - 0.0
19/07:00pm 28.5 24.4 2.0 18 13.0 NNW 13 - 7 - 1011.4 - 0.0
19/06:30pm 29.2 26.3 2.8 18 13.2 NNE 7 - 4 - 1011.3 - 0.0
19/06:00pm 29.6 27.1 3.6 19 13.2 SW 6 - 3 - 1011.4 1011.3 0.0
19/05:30pm 28.7 26.5 6.1 24 11.9 WSW 7 - 4 - 1011.7 - 0.0
19/05:00pm 29.4 26.0 2.0 17 13.5 SW 9 - 5 - 1012.1 - 0.0
19/04:30pm 29.2 25.1 2.0 17 13.4 NW 13 - 7 - 1012.6 - 0.0
19/04:00pm 28.6 25.9 2.5 18 12.9 S 6 - 3 - 1012.7 - 0.0
19/03:30pm 28.1 25.1 6.2 25 11.5 SW 11 - 6 - 1013.2 - 0.0
19/03:00pm 29.2 25.7 3.4 19 13.0 SW 11 - 6 - 1013.6 1013.5 0.0
19/02:30pm 28.3 26.0 5.0 22 12.0 NNW 6 - 3 - 1014.0 - 0.0
19/02:00pm 26.7 23.7 4.3 23 11.3 N 9 - 5 - 1014.4 - 0.0
19/01:30pm 26.1 23.6 4.8 25 10.8 ENE 7 - 4 - 1015.3 - 0.0
19/01:00pm 25.8 23.6 5.5 27 10.4 NNE 6 - 3 - 1016.2 - 0.0
19/12:30pm 24.7 22.9 5.4 29 9.8 W 4 - 2 - 1016.6 - 0.0
19/12:00pm 23.7 21.2 6.6 33 8.8 N 9 - 5 - 1017.1 1017.1 0.0
19/11:30am 22.1 20.3 7.1 38 7.7 N 6 - 3 - 1017.6 - 0.0
19/11:00am 21.0 19.5 8.6 45 6.5 NNE 6 - 3 - 1018.3 - 0.0
19/10:30am 19.5 17.5 8.5 49 5.7 NNE 9 - 5 - 1018.5 - 0.0
19/10:00am 18.5 16.2 8.9 53 5.0 NNE 11 - 6 - 1018.9 - 0.0
19/09:30am 17.3 15.4 9.0 58 4.3 N 9 - 5 - 1019.4 - 0.0
19/09:00am 16.1 14.1 8.6 61 3.8 NNE 9 - 5 - 1019.7 1019.7 0.0
19/08:30am 15.3 13.3 8.8 65 3.3 NNE 9 - 5 - 1019.9 - 0.0
19/08:00am 14.3 12.0 9.0 70 2.7 NE 11 - 6 - 1019.8 - 0.0
19/07:30am 13.5 11.6 9.2 75 2.2 N 9 - 5 - 1019.9 - 0.0
19/07:00am 12.0 10.1 9.0 82 1.5 NE 9 - 5 - 1019.9 - 0.0
19/06:30am 11.8 10.4 9.0 83 1.4 NNE 6 - 3 - 1019.9 - 0.0
19/06:00am 11.8 10.5 9.2 84 1.3 NE 6 - 3 - 1019.9 1019.9 0.0
19/05:30am 12.2 10.9 9.2 82 1.5 NNE 6 - 3 - 1019.8 - 0.0
19/05:00am 12.3 11.0 9.3 82 1.5 NE 6 - 3 - 1019.7 - 0.0
19/04:30am 12.9 12.3 9.1 78 1.9 E 2 - 1 - 1019.9 - 0.0
19/04:00am 13.8 13.2 8.8 72 2.5 E 2 - 1 - 1020.1 - 0.0
19/03:30am 13.9 12.4 9.0 72 2.5 E 7 - 4 - 1020.4 - 0.0
19/03:00am 13.9 12.6 9.2 73 2.4 E 6 - 3 - 1020.8 1020.8 0.0
19/02:30am 14.0 13.2 9.5 74 2.3 ESE 4 - 2 - 1021.0 - 0.0
19/02:00am 14.1 13.2 9.4 73 2.4 ESE 4 - 2 - 1021.2 - 0.0
19/01:30am 14.2 12.9 9.3 72 2.5 SE 6 - 3 - 1021.5 - 0.0
19/01:00am 14.2 12.7 9.3 72 2.5 ESE 7 - 4 - 1021.8 - 0.0
19/12:30am 14.4 13.2 9.5 72 2.5 ESE 6 - 3 - 1022.2 - 0.0
19/12:00am 14.4 13.2 9.5 72 2.5 E 6 - 3 - 1022.3 1022.3 0.0
 
Date/Time
EDT
Tmp

°C
App
Tmp
°C
Dew
Point
°C
Rel
Hum
%
Delta-T

°C
Wind Press
QNH
hPa
Press
MSL
hPa
Rain
since
9 am
mm
Dir
 
Spd
km/h
Gust
km/h
Spd
kts
Gust
kts
18/11:30pm 14.8 13.6 9.5 70 2.7 SSE 6 - 3 - 1022.5 - 0.0
18/11:00pm 14.8 13.5 9.3 69 2.8 SE 6 - 3 - 1022.5 - 0.0
18/10:30pm 15.1 13.7 9.7 70 2.8 SSE 7 - 4 - 1022.6 - 0.0
18/10:00pm 15.7 14.0 9.9 68 3.0 SSE 9 - 5 - 1022.4 - 0.0
18/09:30pm 15.6 14.1 10.5 71 2.7 S 9 - 5 - 1022.1 - 0.0
18/09:00pm 15.6 13.7 10.5 71 2.7 S 11 - 6 - 1021.7 1021.7 0.0
18/08:30pm 16.0 14.5 10.7 71 2.8 S 9 - 5 - 1021.6 - 0.0
18/08:00pm 16.5 15.0 10.5 67 3.2 S 9 - 5 - 1021.3 - 0.0
18/07:30pm 17.2 14.5 10.4 64 3.6 S 15 - 8 - 1020.9 - 0.0
18/07:00pm 17.9 15.0 9.5 58 4.4 SSW 15 - 8 - 1020.4 - 0.0
18/06:30pm 18.9 16.4 8.2 50 5.5 S 11 - 6 - 1019.9 - 0.0
18/06:00pm 20.0 17.3 7.5 44 6.4 SSW 11 - 6 - 1019.9 1019.9 0.0
18/05:30pm 20.9 18.2 7.2 41 7.0 SSW 11 - 6 - 1019.8 - 0.0
18/05:00pm 20.9 18.5 6.9 40 7.1 SSW 9 - 5 - 1019.7 - 0.0
18/04:30pm 20.6 18.2 6.8 40 7.0 SSW 9 - 5 - 1019.7 - 0.0
18/04:00pm 18.7 16.4 5.9 43 6.3 SSW 7 - 4 - 1019.8 - 0.0
18/03:30pm 19.9 16.9 6.0 40 6.9 SSW 11 - 6 - 1020.2 - 0.0
18/03:00pm 18.9 16.1 5.3 41 6.6 S 9 - 5 - 1020.4 1020.4 0.0
18/02:30pm 18.6 15.1 5.4 42 6.4 S 13 - 7 - 1020.8 - 0.0
18/02:00pm 19.5 15.9 6.7 43 6.4 S 15 - 8 - 1021.0 - 0.0
18/01:30pm 19.0 16.5 6.6 44 6.2 S 9 - 5 - 1020.9 - 0.0

Latest Capital City Observations: Canberra | Sydney | Melbourne | Brisbane | Adelaide | Perth | Hobart | Darwin

Other Formats:

Comma delimited format used in spreadsheet applications
http://www.bom.gov.au/fwo/IDV60901/IDV60901.94868.axf

JavaScript Object Notation format (JSON) in row-major order
http://www.bom.gov.au/fwo/IDV60901/IDV60901.94868.json